sensor_id;sensor_type;location;lat;lon;timestamp;P1;durP1;ratioP1;P2;durP2;ratioP2
55067;SDS011;40965;52.368;9.712;2022-12-18T00:01:28;21.27;;;12.47;;
55067;SDS011;40965;52.368;9.712;2022-12-18T00:04:06;21.07;;;12.40;;
55067;SDS011;40965;52.368;9.712;2022-12-18T00:06:43;25.93;;;11.40;;
55067;SDS011;40965;52.368;9.712;2022-12-18T00:09:11;21.33;;;11.23;;
55067;SDS011;40965;52.368;9.712;2022-12-18T00:11:37;24.47;;;10.80;;
55067;SDS011;40965;52.368;9.712;2022-12-18T00:14:06;21.57;;;10.43;;
55067;SDS011;40965;52.368;9.712;2022-12-18T00:16:33;19.53;;;11.83;;
55067;SDS011;40965;52.368;9.712;2022-12-18T00:19:02;26.43;;;14.17;;
55067;SDS011;40965;52.368;9.712;2022-12-18T00:21:31;22.40;;;11.40;;
55067;SDS011;40965;52.368;9.712;2022-12-18T00:23:59;20.77;;;10.77;;
55067;SDS011;40965;52.368;9.712;2022-12-18T00:26:27;17.93;;;10.07;;
55067;SDS011;40965;52.368;9.712;2022-12-18T00:29:04;18.43;;;10.67;;
55067;SDS011;40965;52.368;9.712;2022-12-18T00:31:41;17.37;;;10.03;;
55067;SDS011;40965;52.368;9.712;2022-12-18T00:34:11;26.73;;;12.30;;
55067;SDS011;40965;52.368;9.712;2022-12-18T00:36:39;22.93;;;11.67;;
55067;SDS011;40965;52.368;9.712;2022-12-18T00:39:07;19.83;;;12.47;;
55067;SDS011;40965;52.368;9.712;2022-12-18T00:41:34;19.77;;;9.33;;
55067;SDS011;40965;52.368;9.712;2022-12-18T00:44:18;19.00;;;10.40;;
55067;SDS011;40965;52.368;9.712;2022-12-18T00:46:45;11.50;;;8.80;;
55067;SDS011;40965;52.368;9.712;2022-12-18T00:49:14;17.23;;;8.77;;
55067;SDS011;40965;52.368;9.712;2022-12-18T00:51:44;18.53;;;9.73;;
55067;SDS011;40965;52.368;9.712;2022-12-18T00:54:11;16.93;;;9.67;;
55067;SDS011;40965;52.368;9.712;2022-12-18T00:56:38;16.77;;;7.57;;
55067;SDS011;40965;52.368;9.712;2022-12-18T00:59:07;20.33;;;9.40;;
55067;SDS011;40965;52.368;9.712;2022-12-18T01:01:38;15.83;;;9.90;;
55067;SDS011;40965;52.368;9.712;2022-12-18T01:04:06;20.20;;;8.97;;
55067;SDS011;40965;52.368;9.712;2022-12-18T01:06:32;16.27;;;9.13;;
55067;SDS011;40965;52.368;9.712;2022-12-18T01:08:59;17.33;;;9.33;;
55067;SDS011;40965;52.368;9.712;2022-12-18T01:11:26;20.67;;;11.17;;
55067;SDS011;40965;52.368;9.712;2022-12-18T01:13:53;17.70;;;9.93;;
55067;SDS011;40965;52.368;9.712;2022-12-18T01:16:21;20.57;;;10.57;;
55067;SDS011;40965;52.368;9.712;2022-12-18T01:18:52;16.03;;;9.73;;
55067;SDS011;40965;52.368;9.712;2022-12-18T01:21:21;17.00;;;11.50;;
55067;SDS011;40965;52.368;9.712;2022-12-18T01:23:53;19.60;;;11.00;;
55067;SDS011;40965;52.368;9.712;2022-12-18T01:26:21;21.30;;;9.93;;
55067;SDS011;40965;52.368;9.712;2022-12-18T01:28:55;20.27;;;10.73;;
55067;SDS011;40965;52.368;9.712;2022-12-18T01:31:24;15.70;;;9.27;;
55067;SDS011;40965;52.368;9.712;2022-12-18T01:33:57;13.77;;;8.60;;
55067;SDS011;40965;52.368;9.712;2022-12-18T01:36:28;19.93;;;10.87;;
55067;SDS011;40965;52.368;9.712;2022-12-18T01:39:06;16.23;;;9.07;;
55067;SDS011;40965;52.368;9.712;2022-12-18T01:41:37;15.47;;;8.57;;
55067;SDS011;40965;52.368;9.712;2022-12-18T01:53:12;16.37;;;8.73;;
55067;SDS011;40965;52.368;9.712;2022-12-18T01:55:51;21.37;;;10.43;;
55067;SDS011;40965;52.368;9.712;2022-12-18T01:58:29;17.00;;;8.70;;
55067;SDS011;40965;52.368;9.712;2022-12-18T02:01:08;15.60;;;9.00;;
55067;SDS011;40965;52.368;9.712;2022-12-18T02:03:36;13.77;;;8.70;;
55067;SDS011;40965;52.368;9.712;2022-12-18T02:06:06;17.93;;;8.97;;
55067;SDS011;40965;52.368;9.712;2022-12-18T02:09:02;15.30;;;9.00;;
55067;SDS011;40965;52.368;9.712;2022-12-18T02:18:10;21.63;;;9.97;;
55067;SDS011;40965;52.368;9.712;2022-12-18T02:20:50;17.70;;;9.93;;
55067;SDS011;40965;52.368;9.712;2022-12-18T02:23:36;17.37;;;8.47;;
55067;SDS011;40965;52.368;9.712;2022-12-18T02:26:26;21.15;;;9.07;;
55067;SDS011;40965;52.368;9.712;2022-12-18T02:29:04;20.77;;;8.50;;
55067;SDS011;40965;52.368;9.712;2022-12-18T02:31:40;15.90;;;9.30;;
55067;SDS011;40965;52.368;9.712;2022-12-18T02:34:13;19.47;;;9.13;;
55067;SDS011;40965;52.368;9.712;2022-12-18T02:36:42;15.70;;;8.83;;
55067;SDS011;40965;52.368;9.712;2022-12-18T02:39:11;17.50;;;9.50;;
55067;SDS011;40965;52.368;9.712;2022-12-18T02:41:39;14.63;;;9.30;;
55067;SDS011;40965;52.368;9.712;2022-12-18T02:44:08;15.17;;;8.67;;
55067;SDS011;40965;52.368;9.712;2022-12-18T02:46:38;16.43;;;8.60;;
55067;SDS011;40965;52.368;9.712;2022-12-18T02:49:16;16.70;;;8.73;;
55067;SDS011;40965;52.368;9.712;2022-12-18T02:52:19;22.57;;;11.07;;
55067;SDS011;40965;52.368;9.712;2022-12-18T02:55:13;18.67;;;9.63;;
55067;SDS011;40965;52.368;9.712;2022-12-18T02:57:54;15.60;;;8.63;;
55067;SDS011;40965;52.368;9.712;2022-12-18T03:00:33;17.43;;;9.87;;
55067;SDS011;40965;52.368;9.712;2022-12-18T03:03:11;18.70;;;9.97;;
55067;SDS011;40965;52.368;9.712;2022-12-18T03:05:52;16.43;;;8.83;;
55067;SDS011;40965;52.368;9.712;2022-12-18T03:08:30;17.83;;;10.27;;
55067;SDS011;40965;52.368;9.712;2022-12-18T03:11:05;20.10;;;8.77;;
55067;SDS011;40965;52.368;9.712;2022-12-18T03:13:56;19.83;;;10.87;;
55067;SDS011;40965;52.368;9.712;2022-12-18T03:16:25;17.73;;;9.40;;
55067;SDS011;40965;52.368;9.712;2022-12-18T03:18:58;15.27;;;8.93;;
55067;SDS011;40965;52.368;9.712;2022-12-18T03:21:43;14.00;;;8.90;;
55067;SDS011;40965;52.368;9.712;2022-12-18T03:24:14;19.60;;;9.23;;
55067;SDS011;40965;52.368;9.712;2022-12-18T03:26:44;17.33;;;9.03;;
55067;SDS011;40965;52.368;9.712;2022-12-18T03:29:16;23.30;;;9.83;;
55067;SDS011;40965;52.368;9.712;2022-12-18T03:32:44;21.97;;;9.60;;
55067;SDS011;40965;52.368;9.712;2022-12-18T03:34:57;13.23;;;8.37;;
55067;SDS011;40965;52.368;9.712;2022-12-18T03:37:29;19.25;;;9.30;;
55067;SDS011;40965;52.368;9.712;2022-12-18T03:39:56;16.83;;;9.03;;
55067;SDS011;40965;52.368;9.712;2022-12-18T03:42:27;16.93;;;8.97;;
55067;SDS011;40965;52.368;9.712;2022-12-18T03:45:07;19.47;;;9.10;;
55067;SDS011;40965;52.368;9.712;2022-12-18T03:53:34;14.97;;;8.37;;
55067;SDS011;40965;52.368;9.712;2022-12-18T03:56:26;15.37;;;8.67;;
55067;SDS011;40965;52.368;9.712;2022-12-18T03:58:56;11.80;;;7.83;;
55067;SDS011;40965;52.368;9.712;2022-12-18T04:01:28;14.40;;;8.20;;
55067;SDS011;40965;52.368;9.712;2022-12-18T04:04:00;19.93;;;8.93;;
55067;SDS011;40965;52.368;9.712;2022-12-18T04:06:28;19.00;;;9.60;;
55067;SDS011;40965;52.368;9.712;2022-12-18T04:08:57;16.20;;;8.87;;
55067;SDS011;40965;52.368;9.712;2022-12-18T04:11:24;20.13;;;9.47;;
55067;SDS011;40965;52.368;9.712;2022-12-18T04:13:54;16.43;;;9.00;;
55067;SDS011;40965;52.368;9.712;2022-12-18T04:16:23;17.57;;;10.13;;
55067;SDS011;40965;52.368;9.712;2022-12-18T04:18:51;14.33;;;8.13;;
55067;SDS011;40965;52.368;9.712;2022-12-18T04:21:19;20.77;;;10.67;;
55067;SDS011;40965;52.368;9.712;2022-12-18T04:23:46;15.97;;;9.63;;
55067;SDS011;40965;52.368;9.712;2022-12-18T04:26:12;17.77;;;8.63;;
55067;SDS011;40965;52.368;9.712;2022-12-18T04:28:39;14.90;;;9.33;;
55067;SDS011;40965;52.368;9.712;2022-12-18T04:31:06;16.73;;;9.27;;
55067;SDS011;40965;52.368;9.712;2022-12-18T04:33:32;18.10;;;9.27;;
55067;SDS011;40965;52.368;9.712;2022-12-18T04:35:59;14.80;;;9.73;;
55067;SDS011;40965;52.368;9.712;2022-12-18T04:38:26;15.97;;;9.30;;
55067;SDS011;40965;52.368;9.712;2022-12-18T04:40:53;14.70;;;8.10;;
55067;SDS011;40965;52.368;9.712;2022-12-18T04:43:19;23.03;;;9.47;;
55067;SDS011;40965;52.368;9.712;2022-12-18T04:45:46;18.43;;;8.03;;
55067;SDS011;40965;52.368;9.712;2022-12-18T04:48:13;15.70;;;9.93;;
55067;SDS011;40965;52.368;9.712;2022-12-18T04:50:39;17.50;;;9.10;;
55067;SDS011;40965;52.368;9.712;2022-12-18T04:53:06;16.40;;;9.20;;
55067;SDS011;40965;52.368;9.712;2022-12-18T04:55:32;20.13;;;9.50;;
55067;SDS011;40965;52.368;9.712;2022-12-18T04:57:59;17.23;;;8.83;;
55067;SDS011;40965;52.368;9.712;2022-12-18T05:00:26;15.10;;;7.83;;
55067;SDS011;40965;52.368;9.712;2022-12-18T05:02:53;14.33;;;8.97;;
55067;SDS011;40965;52.368;9.712;2022-12-18T05:05:19;19.13;;;8.73;;
55067;SDS011;40965;52.368;9.712;2022-12-18T05:07:46;18.70;;;9.37;;
55067;SDS011;40965;52.368;9.712;2022-12-18T05:10:12;16.27;;;9.10;;
55067;SDS011;40965;52.368;9.712;2022-12-18T05:12:39;20.17;;;8.70;;
55067;SDS011;40965;52.368;9.712;2022-12-18T05:15:23;20.27;;;9.88;;
55067;SDS011;40965;52.368;9.712;2022-12-18T05:17:51;18.47;;;9.70;;
55067;SDS011;40965;52.368;9.712;2022-12-18T05:20:17;15.23;;;8.70;;
55067;SDS011;40965;52.368;9.712;2022-12-18T05:22:44;21.70;;;8.60;;
55067;SDS011;40965;52.368;9.712;2022-12-18T05:25:11;20.40;;;8.57;;
55067;SDS011;40965;52.368;9.712;2022-12-18T05:27:38;15.63;;;8.90;;
55067;SDS011;40965;52.368;9.712;2022-12-18T05:30:04;12.63;;;8.87;;
55067;SDS011;40965;52.368;9.712;2022-12-18T05:32:32;14.50;;;8.90;;
55067;SDS011;40965;52.368;9.712;2022-12-18T05:34:58;16.20;;;8.37;;
55067;SDS011;40965;52.368;9.712;2022-12-18T05:37:25;14.27;;;8.20;;
55067;SDS011;40965;52.368;9.712;2022-12-18T05:39:51;15.60;;;8.33;;
55067;SDS011;40965;52.368;9.712;2022-12-18T05:42:18;12.03;;;7.33;;
55067;SDS011;40965;52.368;9.712;2022-12-18T05:44:44;18.03;;;7.93;;
55067;SDS011;40965;52.368;9.712;2022-12-18T05:47:11;14.97;;;8.17;;
55067;SDS011;40965;52.368;9.712;2022-12-18T05:49:37;14.03;;;7.10;;
55067;SDS011;40965;52.368;9.712;2022-12-18T05:52:04;14.57;;;7.73;;
55067;SDS011;40965;52.368;9.712;2022-12-18T05:54:31;14.77;;;7.77;;
55067;SDS011;40965;52.368;9.712;2022-12-18T05:56:58;16.17;;;8.30;;
55067;SDS011;40965;52.368;9.712;2022-12-18T05:59:24;15.70;;;8.30;;
55067;SDS011;40965;52.368;9.712;2022-12-18T06:01:51;13.10;;;7.37;;
55067;SDS011;40965;52.368;9.712;2022-12-18T06:04:17;16.90;;;7.37;;
55067;SDS011;40965;52.368;9.712;2022-12-18T06:06:44;11.50;;;6.40;;
55067;SDS011;40965;52.368;9.712;2022-12-18T06:09:11;16.00;;;7.50;;
55067;SDS011;40965;52.368;9.712;2022-12-18T06:11:37;13.33;;;6.50;;
55067;SDS011;40965;52.368;9.712;2022-12-18T06:14:05;13.97;;;6.77;;
55067;SDS011;40965;52.368;9.712;2022-12-18T06:16:33;13.30;;;7.90;;
55067;SDS011;40965;52.368;9.712;2022-12-18T06:19:00;12.60;;;7.23;;
55067;SDS011;40965;52.368;9.712;2022-12-18T06:21:30;12.13;;;7.40;;
55067;SDS011;40965;52.368;9.712;2022-12-18T06:23:59;16.77;;;7.80;;
55067;SDS011;40965;52.368;9.712;2022-12-18T06:26:26;12.73;;;7.10;;
55067;SDS011;40965;52.368;9.712;2022-12-18T06:28:52;17.47;;;9.40;;
55067;SDS011;40965;52.368;9.712;2022-12-18T06:31:19;15.83;;;9.20;;
55067;SDS011;40965;52.368;9.712;2022-12-18T06:33:46;16.10;;;9.20;;
55067;SDS011;40965;52.368;9.712;2022-12-18T06:36:12;12.53;;;7.13;;
55067;SDS011;40965;52.368;9.712;2022-12-18T06:38:41;12.27;;;7.23;;
55067;SDS011;40965;52.368;9.712;2022-12-18T06:41:10;18.27;;;7.13;;
55067;SDS011;40965;52.368;9.712;2022-12-18T06:43:39;13.87;;;6.77;;
55067;SDS011;40965;52.368;9.712;2022-12-18T06:46:06;11.73;;;7.27;;
55067;SDS011;40965;52.368;9.712;2022-12-18T06:48:33;12.17;;;6.70;;
55067;SDS011;40965;52.368;9.712;2022-12-18T06:51:00;14.07;;;8.13;;
55067;SDS011;40965;52.368;9.712;2022-12-18T06:53:27;12.83;;;6.93;;
55067;SDS011;40965;52.368;9.712;2022-12-18T06:56:01;13.77;;;6.67;;
55067;SDS011;40965;52.368;9.712;2022-12-18T06:58:31;12.90;;;6.93;;
55067;SDS011;40965;52.368;9.712;2022-12-18T07:00:59;10.43;;;7.20;;
55067;SDS011;40965;52.368;9.712;2022-12-18T07:03:27;12.53;;;6.00;;
55067;SDS011;40965;52.368;9.712;2022-12-18T07:05:54;10.27;;;5.90;;
55067;SDS011;40965;52.368;9.712;2022-12-18T07:08:21;12.87;;;5.97;;
55067;SDS011;40965;52.368;9.712;2022-12-18T07:10:47;15.13;;;7.13;;
55067;SDS011;40965;52.368;9.712;2022-12-18T07:13:15;14.93;;;6.97;;
55067;SDS011;40965;52.368;9.712;2022-12-18T07:15:43;14.60;;;7.13;;
55067;SDS011;40965;52.368;9.712;2022-12-18T07:18:10;14.77;;;7.13;;
55067;SDS011;40965;52.368;9.712;2022-12-18T07:20:37;13.57;;;6.77;;
55067;SDS011;40965;52.368;9.712;2022-12-18T07:23:03;13.53;;;7.13;;
55067;SDS011;40965;52.368;9.712;2022-12-18T07:25:36;13.83;;;6.63;;
55067;SDS011;40965;52.368;9.712;2022-12-18T07:28:03;12.93;;;7.40;;
55067;SDS011;40965;52.368;9.712;2022-12-18T07:30:31;15.50;;;7.13;;
55067;SDS011;40965;52.368;9.712;2022-12-18T07:32:57;12.60;;;7.60;;
55067;SDS011;40965;52.368;9.712;2022-12-18T07:35:24;16.63;;;8.30;;
55067;SDS011;40965;52.368;9.712;2022-12-18T07:37:51;9.50;;;6.33;;
55067;SDS011;40965;52.368;9.712;2022-12-18T07:40:18;12.27;;;5.90;;
55067;SDS011;40965;52.368;9.712;2022-12-18T07:42:45;9.93;;;6.30;;
55067;SDS011;40965;52.368;9.712;2022-12-18T07:45:12;13.17;;;6.60;;
55067;SDS011;40965;52.368;9.712;2022-12-18T07:47:38;14.67;;;7.07;;
55067;SDS011;40965;52.368;9.712;2022-12-18T07:50:06;12.47;;;6.70;;
55067;SDS011;40965;52.368;9.712;2022-12-18T07:52:33;11.10;;;6.20;;
55067;SDS011;40965;52.368;9.712;2022-12-18T07:55:00;9.13;;;6.33;;
55067;SDS011;40965;52.368;9.712;2022-12-18T07:57:27;16.20;;;8.03;;
55067;SDS011;40965;52.368;9.712;2022-12-18T07:59:53;15.30;;;6.57;;
55067;SDS011;40965;52.368;9.712;2022-12-18T08:02:20;17.33;;;7.30;;
55067;SDS011;40965;52.368;9.712;2022-12-18T08:04:47;15.53;;;7.37;;
55067;SDS011;40965;52.368;9.712;2022-12-18T08:07:13;9.53;;;6.77;;
55067;SDS011;40965;52.368;9.712;2022-12-18T08:09:51;10.27;;;6.83;;
55067;SDS011;40965;52.368;9.712;2022-12-18T08:12:17;11.43;;;6.67;;
55067;SDS011;40965;52.368;9.712;2022-12-18T08:14:44;12.43;;;7.13;;
55067;SDS011;40965;52.368;9.712;2022-12-18T08:17:11;11.30;;;6.43;;
55067;SDS011;40965;52.368;9.712;2022-12-18T08:19:38;16.10;;;8.43;;
55067;SDS011;40965;52.368;9.712;2022-12-18T08:22:05;14.23;;;7.30;;
55067;SDS011;40965;52.368;9.712;2022-12-18T08:24:31;9.57;;;5.77;;
55067;SDS011;40965;52.368;9.712;2022-12-18T08:26:58;12.13;;;5.87;;
55067;SDS011;40965;52.368;9.712;2022-12-18T08:29:25;13.40;;;7.47;;
55067;SDS011;40965;52.368;9.712;2022-12-18T08:31:52;9.87;;;6.63;;
55067;SDS011;40965;52.368;9.712;2022-12-18T08:34:27;10.37;;;6.57;;
55067;SDS011;40965;52.368;9.712;2022-12-18T08:36:54;16.23;;;7.90;;
55067;SDS011;40965;52.368;9.712;2022-12-18T08:39:21;16.23;;;6.20;;
55067;SDS011;40965;52.368;9.712;2022-12-18T08:41:47;14.30;;;7.00;;
55067;SDS011;40965;52.368;9.712;2022-12-18T08:44:28;12.47;;;6.43;;
55067;SDS011;40965;52.368;9.712;2022-12-18T08:47:04;12.43;;;7.13;;
55067;SDS011;40965;52.368;9.712;2022-12-18T08:49:32;11.63;;;6.00;;
55067;SDS011;40965;52.368;9.712;2022-12-18T08:52:00;9.63;;;6.40;;
55067;SDS011;40965;52.368;9.712;2022-12-18T08:54:28;13.47;;;7.43;;
55067;SDS011;40965;52.368;9.712;2022-12-18T08:56:55;9.73;;;6.37;;
55067;SDS011;40965;52.368;9.712;2022-12-18T08:59:22;13.07;;;7.07;;
55067;SDS011;40965;52.368;9.712;2022-12-18T09:01:49;12.60;;;7.57;;
55067;SDS011;40965;52.368;9.712;2022-12-18T09:04:15;12.43;;;7.43;;
55067;SDS011;40965;52.368;9.712;2022-12-18T09:06:42;13.70;;;6.53;;
55067;SDS011;40965;52.368;9.712;2022-12-18T09:09:09;13.23;;;7.17;;
55067;SDS011;40965;52.368;9.712;2022-12-18T09:11:36;11.80;;;6.87;;
55067;SDS011;40965;52.368;9.712;2022-12-18T09:14:03;12.47;;;6.57;;
55067;SDS011;40965;52.368;9.712;2022-12-18T09:16:31;13.23;;;6.57;;
55067;SDS011;40965;52.368;9.712;2022-12-18T09:19:00;13.83;;;7.53;;
55067;SDS011;40965;52.368;9.712;2022-12-18T09:21:30;10.03;;;6.53;;
55067;SDS011;40965;52.368;9.712;2022-12-18T09:24:00;11.03;;;6.43;;
55067;SDS011;40965;52.368;9.712;2022-12-18T09:26:27;11.90;;;7.13;;
55067;SDS011;40965;52.368;9.712;2022-12-18T09:28:54;12.37;;;7.30;;
55067;SDS011;40965;52.368;9.712;2022-12-18T09:31:21;13.10;;;7.30;;
55067;SDS011;40965;52.368;9.712;2022-12-18T09:33:51;9.50;;;5.87;;
55067;SDS011;40965;52.368;9.712;2022-12-18T09:36:18;14.37;;;7.10;;
55067;SDS011;40965;52.368;9.712;2022-12-18T09:38:44;9.83;;;5.87;;
55067;SDS011;40965;52.368;9.712;2022-12-18T09:41:28;13.00;;;6.80;;
55067;SDS011;40965;52.368;9.712;2022-12-18T09:46:53;10.40;;;5.50;;
55067;SDS011;40965;52.368;9.712;2022-12-18T09:49:38;13.17;;;6.43;;
55067;SDS011;40965;52.368;9.712;2022-12-18T09:52:23;12.32;;;6.18;;
55067;SDS011;40965;52.368;9.712;2022-12-18T09:54:58;11.60;;;6.23;;
55067;SDS011;40965;52.368;9.712;2022-12-18T09:57:29;12.32;;;5.65;;
55067;SDS011;40965;52.368;9.712;2022-12-18T10:00:04;12.20;;;6.93;;
55067;SDS011;40965;52.368;9.712;2022-12-18T10:02:41;13.03;;;6.50;;
55067;SDS011;40965;52.368;9.712;2022-12-18T10:05:12;10.77;;;6.80;;
55067;SDS011;40965;52.368;9.712;2022-12-18T10:07:53;17.77;;;8.23;;
55067;SDS011;40965;52.368;9.712;2022-12-18T10:16:16;11.20;;;5.50;;
55067;SDS011;40965;52.368;9.712;2022-12-18T10:19:06;11.27;;;6.07;;
55067;SDS011;40965;52.368;9.712;2022-12-18T10:22:43;12.13;;;6.47;;
55067;SDS011;40965;52.368;9.712;2022-12-18T10:25:33;10.43;;;5.95;;
55067;SDS011;40965;52.368;9.712;2022-12-18T10:28:16;12.40;;;5.70;;
55067;SDS011;40965;52.368;9.712;2022-12-18T10:30:44;10.63;;;5.68;;
55067;SDS011;40965;52.368;9.712;2022-12-18T10:33:23;11.68;;;5.40;;
55067;SDS011;40965;52.368;9.712;2022-12-18T10:35:55;9.05;;;5.85;;
55067;SDS011;40965;52.368;9.712;2022-12-18T10:38:23;11.52;;;5.88;;
55067;SDS011;40965;52.368;9.712;2022-12-18T10:43:26;7.78;;;5.13;;
55067;SDS011;40965;52.368;9.712;2022-12-18T10:48:55;7.32;;;4.80;;
55067;SDS011;40965;52.368;9.712;2022-12-18T10:51:32;11.05;;;4.85;;
55067;SDS011;40965;52.368;9.712;2022-12-18T10:54:01;7.85;;;5.25;;
55067;SDS011;40965;52.368;9.712;2022-12-18T10:56:45;9.90;;;5.45;;
55067;SDS011;40965;52.368;9.712;2022-12-18T10:59:13;5.80;;;4.03;;
55067;SDS011;40965;52.368;9.712;2022-12-18T11:01:49;7.18;;;5.05;;
55067;SDS011;40965;52.368;9.712;2022-12-18T11:04:28;10.07;;;5.78;;
55067;SDS011;40965;52.368;9.712;2022-12-18T11:06:59;8.77;;;4.97;;
55067;SDS011;40965;52.368;9.712;2022-12-18T11:09:34;11.57;;;5.13;;
55067;SDS011;40965;52.368;9.712;2022-12-18T11:12:05;7.63;;;5.63;;
55067;SDS011;40965;52.368;9.712;2022-12-18T11:14:50;7.70;;;5.15;;
55067;SDS011;40965;52.368;9.712;2022-12-18T11:17:29;10.93;;;5.60;;
55067;SDS011;40965;52.368;9.712;2022-12-18T11:20:00;7.70;;;4.40;;
55067;SDS011;40965;52.368;9.712;2022-12-18T11:22:32;6.78;;;4.85;;
55067;SDS011;40965;52.368;9.712;2022-12-18T11:25:05;5.80;;;4.07;;
55067;SDS011;40965;52.368;9.712;2022-12-18T11:27:48;6.10;;;4.15;;
55067;SDS011;40965;52.368;9.712;2022-12-18T11:30:26;5.95;;;4.40;;
55067;SDS011;40965;52.368;9.712;2022-12-18T11:33:04;7.40;;;3.97;;
55067;SDS011;40965;52.368;9.712;2022-12-18T11:35:55;5.55;;;4.72;;
55067;SDS011;40965;52.368;9.712;2022-12-18T11:38:29;8.13;;;4.55;;
55067;SDS011;40965;52.368;9.712;2022-12-18T11:41:02;10.77;;;4.40;;
55067;SDS011;40965;52.368;9.712;2022-12-18T11:44:18;5.72;;;3.95;;
55067;SDS011;40965;52.368;9.712;2022-12-18T11:46:55;6.93;;;4.03;;
55067;SDS011;40965;52.368;9.712;2022-12-18T11:49:34;11.07;;;5.70;;
55067;SDS011;40965;52.368;9.712;2022-12-18T11:52:04;13.07;;;5.95;;
55067;SDS011;40965;52.368;9.712;2022-12-18T11:54:45;8.25;;;5.47;;
55067;SDS011;40965;52.368;9.712;2022-12-18T12:00:27;10.13;;;4.78;;
55067;SDS011;40965;52.368;9.712;2022-12-18T12:16:57;5.38;;;3.53;;
55067;SDS011;40965;52.368;9.712;2022-12-18T12:33:05;5.30;;;2.97;;
55067;SDS011;40965;52.368;9.712;2022-12-18T12:36:27;4.40;;;2.90;;
55067;SDS011;40965;52.368;9.712;2022-12-18T12:39:16;3.20;;;2.22;;
55067;SDS011;40965;52.368;9.712;2022-12-18T12:41:48;5.85;;;2.72;;
55067;SDS011;40965;52.368;9.712;2022-12-18T12:44:46;3.97;;;3.05;;
55067;SDS011;40965;52.368;9.712;2022-12-18T12:48:00;6.75;;;3.30;;
55067;SDS011;40965;52.368;9.712;2022-12-18T12:53:56;6.57;;;3.67;;
55067;SDS011;40965;52.368;9.712;2022-12-18T12:56:35;5.55;;;3.38;;
55067;SDS011;40965;52.368;9.712;2022-12-18T12:59:15;7.90;;;3.45;;
55067;SDS011;40965;52.368;9.712;2022-12-18T13:02:14;5.22;;;3.55;;
55067;SDS011;40965;52.368;9.712;2022-12-18T13:05:24;6.43;;;3.38;;
55067;SDS011;40965;52.368;9.712;2022-12-18T13:08:25;5.20;;;3.55;;
55067;SDS011;40965;52.368;9.712;2022-12-18T13:10:58;8.00;;;3.85;;
55067;SDS011;40965;52.368;9.712;2022-12-18T13:13:53;8.10;;;3.95;;
55067;SDS011;40965;52.368;9.712;2022-12-18T13:16:25;8.13;;;4.10;;
55067;SDS011;40965;52.368;9.712;2022-12-18T13:18:54;11.48;;;6.18;;
55067;SDS011;40965;52.368;9.712;2022-12-18T13:21:32;7.38;;;3.80;;
55067;SDS011;40965;52.368;9.712;2022-12-18T13:24:15;11.38;;;4.80;;
55067;SDS011;40965;52.368;9.712;2022-12-18T13:27:00;7.88;;;4.20;;
55067;SDS011;40965;52.368;9.712;2022-12-18T13:39:11;8.02;;;4.25;;
55067;SDS011;40965;52.368;9.712;2022-12-18T13:41:41;13.45;;;7.05;;
55067;SDS011;40965;52.368;9.712;2022-12-18T13:44:12;11.63;;;6.35;;
55067;SDS011;40965;52.368;9.712;2022-12-18T13:46:50;9.77;;;6.43;;
55067;SDS011;40965;52.368;9.712;2022-12-18T13:49:22;13.25;;;7.75;;
55067;SDS011;40965;52.368;9.712;2022-12-18T13:51:54;12.75;;;7.03;;
55067;SDS011;40965;52.368;9.712;2022-12-18T13:57:50;14.70;;;7.90;;
55067;SDS011;40965;52.368;9.712;2022-12-18T14:02:47;13.27;;;8.10;;
55067;SDS011;40965;52.368;9.712;2022-12-18T14:05:26;20.92;;;8.73;;
55067;SDS011;40965;52.368;9.712;2022-12-18T14:08:01;17.70;;;10.00;;
55067;SDS011;40965;52.368;9.712;2022-12-18T14:10:45;19.33;;;9.43;;
55067;SDS011;40965;52.368;9.712;2022-12-18T14:13:35;12.70;;;8.07;;
55067;SDS011;40965;52.368;9.712;2022-12-18T14:16:07;15.10;;;7.22;;
55067;SDS011;40965;52.368;9.712;2022-12-18T14:21:27;13.88;;;9.25;;
55067;SDS011;40965;52.368;9.712;2022-12-18T14:26:56;13.15;;;9.10;;
55067;SDS011;40965;52.368;9.712;2022-12-18T14:29:46;18.20;;;9.15;;
55067;SDS011;40965;52.368;9.712;2022-12-18T14:32:21;15.52;;;9.43;;
55067;SDS011;40965;52.368;9.712;2022-12-18T14:34:51;17.30;;;9.27;;
55067;SDS011;40965;52.368;9.712;2022-12-18T14:37:22;21.45;;;9.25;;
55067;SDS011;40965;52.368;9.712;2022-12-18T14:39:54;17.48;;;10.13;;
55067;SDS011;40965;52.368;9.712;2022-12-18T14:42:27;16.23;;;9.80;;
55067;SDS011;40965;52.368;9.712;2022-12-18T14:48:07;21.02;;;10.15;;
55067;SDS011;40965;52.368;9.712;2022-12-18T14:50:38;19.73;;;11.07;;
55067;SDS011;40965;52.368;9.712;2022-12-18T14:53:05;22.15;;;11.77;;
55067;SDS011;40965;52.368;9.712;2022-12-18T14:55:32;19.88;;;11.13;;
55067;SDS011;40965;52.368;9.712;2022-12-18T14:57:58;25.67;;;11.52;;
55067;SDS011;40965;52.368;9.712;2022-12-18T15:00:25;25.65;;;12.80;;
55067;SDS011;40965;52.368;9.712;2022-12-18T15:02:53;21.65;;;12.60;;
55067;SDS011;40965;52.368;9.712;2022-12-18T15:05:28;25.70;;;13.23;;
55067;SDS011;40965;52.368;9.712;2022-12-18T15:07:58;21.50;;;11.55;;
55067;SDS011;40965;52.368;9.712;2022-12-18T15:10:33;20.40;;;11.88;;
55067;SDS011;40965;52.368;9.712;2022-12-18T15:18:23;21.08;;;10.82;;
55067;SDS011;40965;52.368;9.712;2022-12-18T15:20:59;20.08;;;11.00;;
55067;SDS011;40965;52.368;9.712;2022-12-18T15:23:38;17.80;;;10.15;;
55067;SDS011;40965;52.368;9.712;2022-12-18T15:26:19;17.80;;;9.02;;
55067;SDS011;40965;52.368;9.712;2022-12-18T15:28:51;21.85;;;11.63;;
55067;SDS011;40965;52.368;9.712;2022-12-18T15:31:30;21.77;;;12.05;;
55067;SDS011;40965;52.368;9.712;2022-12-18T15:34:01;19.27;;;11.38;;
55067;SDS011;40965;52.368;9.712;2022-12-18T15:36:40;21.15;;;12.00;;
55067;SDS011;40965;52.368;9.712;2022-12-18T15:39:09;19.65;;;10.93;;
55067;SDS011;40965;52.368;9.712;2022-12-18T15:41:38;24.80;;;12.02;;
55067;SDS011;40965;52.368;9.712;2022-12-18T15:47:01;22.55;;;13.18;;
55067;SDS011;40965;52.368;9.712;2022-12-18T15:49:28;21.27;;;12.38;;
55067;SDS011;40965;52.368;9.712;2022-12-18T15:51:56;25.75;;;12.23;;
55067;SDS011;40965;52.368;9.712;2022-12-18T15:54:25;23.93;;;13.40;;
55067;SDS011;40965;52.368;9.712;2022-12-18T15:57:10;21.75;;;12.00;;
55067;SDS011;40965;52.368;9.712;2022-12-18T15:59:53;19.90;;;10.85;;
55067;SDS011;40965;52.368;9.712;2022-12-18T16:02:23;25.23;;;11.93;;
55067;SDS011;40965;52.368;9.712;2022-12-18T16:04:51;27.17;;;12.97;;
55067;SDS011;40965;52.368;9.712;2022-12-18T16:07:19;17.75;;;10.13;;
55067;SDS011;40965;52.368;9.712;2022-12-18T16:09:46;23.67;;;12.13;;
55067;SDS011;40965;52.368;9.712;2022-12-18T16:12:17;20.87;;;11.90;;
55067;SDS011;40965;52.368;9.712;2022-12-18T16:14:47;19.30;;;11.57;;
55067;SDS011;40965;52.368;9.712;2022-12-18T16:17:14;21.80;;;10.85;;
55067;SDS011;40965;52.368;9.712;2022-12-18T16:19:42;19.85;;;11.90;;
55067;SDS011;40965;52.368;9.712;2022-12-18T16:22:17;21.90;;;12.70;;
55067;SDS011;40965;52.368;9.712;2022-12-18T16:24:50;20.98;;;12.20;;
55067;SDS011;40965;52.368;9.712;2022-12-18T16:27:17;21.17;;;11.27;;
55067;SDS011;40965;52.368;9.712;2022-12-18T16:29:45;21.40;;;12.23;;
55067;SDS011;40965;52.368;9.712;2022-12-18T16:32:13;21.25;;;12.55;;
55067;SDS011;40965;52.368;9.712;2022-12-18T16:34:45;21.83;;;11.27;;
55067;SDS011;40965;52.368;9.712;2022-12-18T16:37:12;22.05;;;13.73;;
55067;SDS011;40965;52.368;9.712;2022-12-18T16:39:41;23.73;;;12.82;;
55067;SDS011;40965;52.368;9.712;2022-12-18T16:42:10;27.10;;;13.40;;
55067;SDS011;40965;52.368;9.712;2022-12-18T16:44:44;26.15;;;11.15;;
55067;SDS011;40965;52.368;9.712;2022-12-18T16:47:12;15.73;;;10.55;;